Terminal Aerodrome Forecast
Issued by NWS Tampa Bay Area, FL

Home | Current Version | Previous Version | Text Only | Print | Product List | Glossary On
Versions: 1 2 3 4 5 6 7 8 9 10 11 12
000
FTUS42 KTBW 242331
TAFSRQ
TAF
KSRQ 242331Z 2500/2524 31008KT P6SM SKC
     FM250100 09008KT P6SM FEW050
     FM250300 08006KT P6SM SKC
     FM250800 09004KT P6SM SKC
     FM251400 10012G18KT P6SM FEW040
     FM252100 06012KT P6SM SCT060=

USA.gov is the U.S. government's official web portal to all federal, state and local government web resources and services.